Time;durP1;ratioP1;P1;durP2;ratioP2;P2;SDS_P1;SDS_P2;PMS_P1;PMS_P2;Temp;Humidity;BMP_temperature;BMP_pressure;BME280_temperature;BME280_humidity;BME280_pressure;Samples;Min_cycle;Max_cycle;Signal;HPM_P1;HPM_P2
2022/08/26 00:02:11;;;;;;;12.68;5.03;;;;;;;21.72;100.00;100037.50;5551755;32;34662;-71
2022/08/26 00:05:14;;;;;;;10.50;4.35;;;;;;;21.72;100.00;100034.78;5537150;32;33448;-71
2022/08/26 00:08:19;;;;;;;13.32;4.65;;;;;;;21.72;100.00;100038.31;5524684;32;32875;-71
2022/08/26 00:11:21;;;;;;;16.75;4.87;;;;;;;21.82;100.00;100038.47;5525023;32;32810;-71
2022/08/26 00:14:28;;;;;;;9.18;4.85;;;;;;;21.89;100.00;100025.56;5551350;32;34205;-70
2022/08/26 00:17:32;;;;;;;17.90;4.75;;;;;;;22.03;100.00;100037.66;5551145;32;34268;-71
2022/08/26 00:20:35;;;;;;;13.75;5.10;;;;;;;21.99;100.00;100038.44;5537501;32;34137;-70
2022/08/26 00:23:38;;;;;;;18.95;5.15;;;;;;;21.97;100.00;100025.19;5550301;32;32854;-70
2022/08/26 00:26:41;;;;;;;14.30;5.28;;;;;;;21.96;100.00;100026.25;5551093;32;34120;-70
2022/08/26 00:29:44;;;;;;;12.68;4.82;;;;;;;21.87;100.00;100032.31;5551219;32;34864;-70
2022/08/26 00:32:47;;;;;;;13.18;5.32;;;;;;;21.77;100.00;100034.88;5551043;32;34263;-70
2022/08/26 00:35:49;;;;;;;11.12;4.95;;;;;;;21.74;100.00;100032.66;5537501;32;34244;-71
2022/08/26 00:38:52;;;;;;;11.07;5.05;;;;;;;21.64;100.00;100030.63;5551037;32;34629;-71
2022/08/26 00:41:56;;;;;;;12.25;5.05;;;;;;;21.61;100.00;100033.81;5550941;32;34926;-71
2022/08/26 00:44:58;;;;;;;13.32;5.25;;;;;;;21.58;100.00;100035.16;5550806;32;34874;-71
2022/08/26 00:48:04;;;;;;;12.15;5.05;;;;;;;21.64;100.00;100025.22;5550890;32;34266;-71
2022/08/26 00:51:22;;;;;;;10.60;5.10;;;;;;;21.67;100.00;100024.75;5537318;32;34673;-71
2022/08/26 00:54:28;;;;;;;17.55;5.20;;;;;;;21.67;100.00;100028.25;5550848;32;34290;-71
2022/08/26 00:57:33;;;;;;;10.65;4.78;;;;;;;21.62;100.00;100030.87;5550853;32;34214;-71
2022/08/26 01:00:35;;;;;;;9.57;4.97;;;;;;;21.60;100.00;100024.09;5550783;32;34225;-71
2022/08/26 01:03:39;;;;;;;13.62;5.30;;;;;;;21.57;100.00;100022.72;5550705;32;34805;-70
2022/08/26 01:06:43;;;;;;;13.62;4.72;;;;;;;21.54;100.00;100023.19;5551086;32;34908;-70
2022/08/26 01:09:46;;;;;;;13.95;4.70;;;;;;;21.45;100.00;100026.56;5550424;32;34274;-70
2022/08/26 01:13:04;;;;;;;12.15;4.80;;;;;;;21.38;100.00;100021.34;5550728;32;34686;-70
2022/08/26 01:16:11;;;;;;;15.02;5.40;;;;;;;21.28;100.00;100033.87;5550622;32;34939;-71
2022/08/26 01:19:21;;;;;;;11.00;5.10;;;;;;;21.19;100.00;100028.91;5537431;32;34211;-70
2022/08/26 01:22:54;;;;;;;13.98;4.70;;;;;;;21.14;100.00;100028.81;5550602;32;34339;-70
2022/08/26 01:26:02;;;;;;;12.05;4.87;;;;;;;21.25;100.00;100019.00;5549630;32;34880;-70
2022/08/26 01:29:11;;;;;;;13.40;4.70;;;;;;;21.23;100.00;100018.41;5550615;32;34129;-70
2022/08/26 01:32:18;;;;;;;12.07;5.37;;;;;;;21.09;100.00;100017.91;5550828;32;34893;-70
2022/08/26 01:35:21;;;;;;;8.82;4.70;;;;;;;21.00;100.00;100016.69;5536948;32;34343;-70
2022/08/26 01:38:24;;;;;;;9.73;4.80;;;;;;;21.05;100.00;100015.94;5550376;32;34209;-70
2022/08/26 01:41:32;;;;;;;17.17;5.32;;;;;;;21.09;100.00;100017.09;5550499;32;34222;-71
2022/08/26 01:44:44;;;;;;;13.32;5.25;;;;;;;21.13;100.00;100020.91;5550352;32;34139;-70
2022/08/26 01:47:49;;;;;;;17.58;5.60;;;;;;;21.08;100.00;100021.66;5550459;32;34701;-71
2022/08/26 01:51:00;;;;;;;12.32;5.30;;;;;;;21.13;100.00;100019.06;5550433;32;34923;-71
2022/08/26 01:54:07;;;;;;;11.02;5.05;;;;;;;21.04;100.00;100023.22;5550323;32;34713;-71
2022/08/26 01:57:16;;;;;;;9.50;5.27;;;;;;;20.98;100.00;100013.41;5550277;32;34775;-71
2022/08/26 02:00:19;;;;;;;9.57;4.78;;;;;;;20.89;100.00;100019.44;5536436;32;33548;-71
2022/08/26 02:03:23;;;;;;;10.20;5.15;;;;;;;20.79;100.00;100023.59;5550439;32;34653;-71
2022/08/26 02:06:26;;;;;;;14.57;5.40;;;;;;;20.77;100.00;100023.00;5550030;32;33925;-71
2022/08/26 02:09:29;;;;;;;11.43;5.47;;;;;;;20.65;100.00;100019.56;5536672;32;34184;-71
2022/08/26 02:12:32;;;;;;;11.25;5.28;;;;;;;20.59;100.00;100017.84;5549932;32;35519;-71
2022/08/26 02:15:35;;;;;;;9.95;5.05;;;;;;;20.56;100.00;100012.94;5550297;32;34615;-71
2022/08/26 02:18:41;;;;;;;9.52;5.22;;;;;;;20.56;100.00;100020.19;5550411;32;34593;-71
2022/08/26 02:21:47;;;;;;;28.12;5.35;;;;;;;20.53;100.00;100020.66;5549182;32;34970;-71
2022/08/26 02:25:00;;;;;;;13.45;5.90;;;;;;;20.50;100.00;100019.28;5550014;32;34815;-71
2022/08/26 02:28:03;;;;;;;16.02;5.50;;;;;;;20.49;100.00;100011.44;5550383;32;34839;-71
2022/08/26 02:31:06;;;;;;;12.60;5.65;;;;;;;20.47;100.00;100018.97;5549876;32;34855;-71
2022/08/26 02:34:13;;;;;;;9.75;5.18;;;;;;;20.46;100.00;100015.44;5549895;32;33973;-71
2022/08/26 02:37:16;;;;;;;12.98;5.57;;;;;;;20.42;100.00;100022.38;5549646;32;34231;-71
2022/08/26 02:40:26;;;;;;;12.80;5.18;;;;;;;20.36;100.00;100009.84;5549829;32;34875;-71
2022/08/26 02:43:29;;;;;;;12.40;6.15;;;;;;;20.42;100.00;100014.28;5549716;32;34703;-71
2022/08/26 02:46:34;;;;;;;11.45;5.32;;;;;;;20.47;100.00;100016.25;5550106;32;34076;-71
2022/08/26 02:49:42;;;;;;;10.60;5.68;;;;;;;20.49;100.00;100016.81;5549558;32;34330;-71
2022/08/26 02:52:48;;;;;;;11.57;6.47;;;;;;;20.47;100.00;100011.69;5549541;32;34234;-71
2022/08/26 02:55:52;;;;;;;14.15;6.60;;;;;;;20.41;100.00;100023.44;5549466;32;34893;-71
2022/08/26 02:58:55;;;;;;;13.93;6.00;;;;;;;20.33;100.00;100021.13;5549471;32;34120;-71
2022/08/26 03:01:58;;;;;;;10.82;5.90;;;;;;;20.36;100.00;100026.84;5549351;32;34233;-71
2022/08/26 03:05:00;;;;;;;11.80;5.87;;;;;;;20.31;100.00;100028.62;5549183;32;34932;-70
2022/08/26 03:08:04;;;;;;;15.02;6.45;;;;;;;20.22;100.00;100028.16;5549497;32;34623;-71
2022/08/26 03:11:06;;;;;;;12.35;6.25;;;;;;;20.08;100.00;100021.41;5549215;32;34159;-71
2022/08/26 03:14:12;;;;;;;8.52;5.50;;;;;;;20.05;100.00;100021.88;5549189;32;34277;-70
2022/08/26 03:17:14;;;;;;;9.60;5.90;;;;;;;20.06;100.00;100022.69;5549108;32;34178;-70
2022/08/26 03:20:17;;;;;;;13.05;5.75;;;;;;;19.96;100.00;100016.03;5548992;32;34218;-70
2022/08/26 03:23:20;;;;;;;16.65;6.12;;;;;;;19.90;100.00;100014.28;5549017;32;34803;-71
2022/08/26 03:26:23;;;;;;;15.68;6.37;;;;;;;19.87;100.00;100011.25;5535120;32;33807;-71
2022/08/26 03:32:52;;;;;;;13.27;6.47;;;;;;;19.75;100.00;100005.88;5549434;32;34251;-71
2022/08/26 03:35:54;;;;;;;11.73;6.18;;;;;;;19.81;100.00;100007.63;5537604;32;34276;-71
2022/08/26 03:38:58;;;;;;;17.40;6.65;;;;;;;19.75;100.00;100003.19;5551837;32;34204;-68
2022/08/26 03:42:01;;;;;;;16.12;6.20;;;;;;;19.78;100.00;100002.75;5538011;32;34299;-68
2022/08/26 03:45:07;;;;;;;15.27;6.22;;;;;;;19.75;100.00;100002.41;5551510;32;34954;-69
2022/08/26 03:48:10;;;;;;;16.40;6.20;;;;;;;19.69;100.00;99997.97;5551401;32;34886;-69
2022/08/26 03:51:17;;;;;;;16.23;6.22;;;;;;;19.66;100.00;100004.62;5537990;32;34142;-69
2022/08/26 03:54:20;;;;;;;12.15;5.95;;;;;;;19.71;100.00;100001.22;5551489;32;34260;-69
2022/08/26 03:57:23;;;;;;;12.45;5.93;;;;;;;19.86;100.00;100006.91;5551388;32;34274;-69
2022/08/26 04:00:25;;;;;;;13.18;5.90;;;;;;;19.89;100.00;100003.78;5537367;32;33256;-69
2022/08/26 04:06:56;;;;;;;14.23;6.28;;;;;;;19.81;100.00;100001.44;5551292;32;34849;-69
2022/08/26 04:09:58;;;;;;;18.02;6.20;;;;;;;19.79;100.00;100001.69;5551280;32;34291;-69
2022/08/26 04:13:01;;;;;;;11.48;5.87;;;;;;;19.79;100.00;100006.25;5551167;32;34193;-68
2022/08/26 04:16:05;;;;;;;14.93;6.20;;;;;;;19.75;100.00;99999.72;5551144;32;34885;-68
2022/08/26 04:19:10;;;;;;;20.60;6.40;;;;;;;19.75;100.00;100002.41;5551423;32;34246;-68
2022/08/26 04:22:13;;;;;;;14.23;6.35;;;;;;;19.82;100.00;100006.59;5551289;32;34645;-69
2022/08/26 04:25:25;;;;;;;14.45;6.10;;;;;;;19.84;100.00;100007.19;5551148;32;34134;-69
2022/08/26 04:28:28;;;;;;;16.08;6.75;;;;;;;19.88;100.00;100010.22;5551068;32;34273;-69
2022/08/26 04:31:33;;;;;;;15.43;6.87;;;;;;;19.95;100.00;100014.38;5551171;32;34350;-69
2022/08/26 04:34:37;;;;;;;17.42;7.25;;;;;;;20.01;100.00;100009.94;5551100;32;34841;-69
2022/08/26 04:37:40;;;;;;;14.75;6.85;;;;;;;20.06;100.00;100006.53;5550913;32;35490;-69
2022/08/26 04:40:45;;;;;;;23.10;7.10;;;;;;;20.09;100.00;100000.69;5551132;32;34919;-69
2022/08/26 04:43:49;;;;;;;26.37;7.50;;;;;;;20.18;100.00;99996.56;5537375;32;34813;-69
2022/08/26 04:46:53;;;;;;;15.15;6.95;;;;;;;20.27;100.00;100000.50;5549828;32;34267;-68
2022/08/26 04:49:56;;;;;;;16.27;6.55;;;;;;;20.45;100.00;100005.72;5550703;32;34285;-70
2022/08/26 04:53:00;;;;;;;13.30;7.03;;;;;;;20.51;100.00;100014.72;5536850;32;34627;-69
2022/08/26 04:56:03;;;;;;;14.32;5.93;;;;;;;20.61;100.00;100004.13;5551177;32;34110;-69
2022/08/26 04:59:09;;;;;;;18.17;6.28;;;;;;;20.61;100.00;100014.91;5536964;32;33570;-69
2022/08/26 05:02:18;;;;;;;14.75;5.90;;;;;;;20.65;100.00;100010.66;5550877;32;34187;-69
2022/08/26 05:05:21;;;;;;;13.27;5.70;;;;;;;20.70;100.00;100013.44;5550782;32;34147;-68
2022/08/26 05:08:24;;;;;;;11.82;5.70;;;;;;;20.80;100.00;100010.94;5536622;32;33356;-69
2022/08/26 05:11:27;;;;;;;15.38;6.10;;;;;;;20.87;100.00;100008.88;5550448;32;34911;-69
2022/08/26 05:14:31;;;;;;;15.55;6.47;;;;;;;20.97;100.00;100011.75;5550947;32;34938;-69
2022/08/26 05:17:36;;;;;;;14.15;5.82;;;;;;;21.05;100.00;100018.62;5550213;32;34174;-70
2022/08/26 05:20:43;;;;;;;12.50;5.47;;;;;;;21.12;100.00;100009.31;5550414;32;34869;-69
2022/08/26 05:23:50;;;;;;;15.52;5.70;;;;;;;21.33;100.00;100015.06;5550464;32;34227;-69
2022/08/26 05:26:52;;;;;;;17.62;5.22;;;;;;;21.33;100.00;100005.09;5550398;32;35425;-69
2022/08/26 05:29:56;;;;;;;16.65;4.95;;;;;;;21.43;100.00;100013.34;5536904;32;32916;-69
2022/08/26 05:32:58;;;;;;;13.60;5.20;;;;;;;21.50;100.00;100011.25;5550288;32;34226;-69
2022/08/26 05:36:09;;;;;;;21.55;5.10;;;;;;;21.59;100.00;100019.78;5550364;32;34306;-69
2022/08/26 05:39:12;;;;;;;18.65;5.07;;;;;;;21.73;100.00;100025.62;5536296;32;33464;-72
2022/08/26 05:42:15;;;;;;;12.90;5.07;;;;;;;21.93;100.00;100012.41;5549681;32;34175;-69
2022/08/26 05:45:19;;;;;;;19.08;5.28;;;;;;;22.00;100.00;100019.28;5550098;32;34497;-70
2022/08/26 05:48:22;;;;;;;13.25;4.65;;;;;;;22.10;100.00;100019.41;5550092;32;34251;-72
2022/08/26 05:51:25;;;;;;;76.22;11.32;;;;;;;22.08;100.00;100024.22;5549823;32;34287;-69
2022/08/26 05:54:33;;;;;;;219.98;23.30;;;;;;;22.24;100.00;100027.13;5535806;32;33371;-68
2022/08/26 05:57:36;;;;;;;1999.90;542.22;;;;;;;22.31;100.00;100020.47;5548623;32;34160;-68
2022/08/26 06:00:44;;;;;;;29.10;6.95;;;;;;;22.41;100.00;100031.38;5536402;32;32738;-68
2022/08/26 06:03:50;;;;;;;15.07;4.80;;;;;;;22.50;100.00;100024.47;5549808;32;34545;-68
2022/08/26 06:06:53;;;;;;;15.38;5.25;;;;;;;22.58;100.00;100025.06;5549623;32;34907;-68
2022/08/26 06:09:56;;;;;;;17.80;4.45;;;;;;;22.61;100.00;100029.97;5536332;32;33616;-68
2022/08/26 06:13:22;;;;;;;14.18;4.53;;;;;;;22.70;100.00;100031.16;5549691;32;34605;-68
2022/08/26 06:16:25;;;;;;;121.30;20.58;;;;;;;22.80;99.46;100028.56;5549897;32;34167;-68
2022/08/26 06:19:28;;;;;;;525.92;53.40;;;;;;;22.95;98.04;100032.22;5549749;32;34269;-69
2022/08/26 06:25:57;;;;;;;440.02;50.35;;;;;;;23.27;92.70;100034.09;5536009;32;33870;-70
2022/08/26 06:29:01;;;;;;;23.08;4.95;;;;;;;23.43;90.06;100038.53;5549757;32;34547;-67
2022/08/26 06:32:05;;;;;;;19.15;4.07;;;;;;;23.74;87.96;100048.53;5536525;32;34952;-69
2022/08/26 06:35:10;;;;;;;19.20;4.28;;;;;;;24.00;85.22;100043.25;5536163;32;34266;-68
2022/08/26 06:38:14;;;;;;;16.50;4.07;;;;;;;24.12;84.50;100060.09;5549257;32;34269;-68
2022/08/26 06:41:19;;;;;;;21.37;4.20;;;;;;;24.33;82.69;100045.59;5535994;32;33664;-68
2022/08/26 06:44:22;;;;;;;756.17;87.20;;;;;;;24.52;81.87;100046.75;5549499;32;34824;-70
2022/08/26 06:47:25;;;;;;;25.10;5.07;;;;;;;24.64;78.48;100043.78;5548981;32;34982;-68
2022/08/26 06:50:27;;;;;;;19.75;4.32;;;;;;;24.88;76.29;100044.13;5548568;32;34550;-71
2022/08/26 06:53:30;;;;;;;24.10;4.07;;;;;;;25.15;74.43;100047.41;5549208;32;34769;-68
2022/08/26 06:56:39;;;;;;;131.90;13.30;;;;;;;25.51;73.29;100040.06;5548880;32;33932;-70
2022/08/26 06:59:42;;;;;;;;;;;;;;;26.16;71.20;100046.41;5548970;32;34307;-68
2022/08/26 07:02:45;;;;;;;19.15;3.58;;;;;;;27.40;65.90;100042.34;5548744;32;35105;-69
2022/08/26 07:05:49;;;;;;;15.27;3.60;;;;;;;27.81;60.98;100039.25;5548790;32;34460;-71
2022/08/26 07:09:03;;;;;;;437.38;40.63;;;;;;;27.31;59.86;100044.06;5549831;32;34285;-70
2022/08/26 07:12:08;;;;;;;23.38;4.82;;;;;;;27.96;59.44;100042.62;5551001;32;34537;-70
2022/08/26 07:15:12;;;;;;;54.28;6.97;;;;;;;28.33;55.60;100036.44;5550998;32;34905;-68
2022/08/26 07:18:17;;;;;;;17.83;4.03;;;;;;;27.94;54.67;100035.81;5551104;32;34218;-74
2022/08/26 07:21:24;;;;;;;18.90;3.10;;;;;;;29.34;51.02;100045.06;5550922;32;35434;-70
2022/08/26 07:24:27;;;;;;;10.95;3.05;;;;;;;28.67;51.80;100043.63;5550816;32;34196;-71
2022/08/26 07:27:30;;;;;;;15.63;2.90;;;;;;;28.83;51.68;100045.06;5551029;32;34859;-70
2022/08/26 07:30:38;;;;;;;12.88;3.45;;;;;;;30.19;48.44;100048.13;5551133;32;35024;-70
2022/08/26 07:33:42;;;;;;;8.43;3.12;;;;;;;30.01;48.61;100046.31;5550658;32;34416;-70
2022/08/26 07:36:45;;;;;;;13.38;3.70;;;;;;;30.36;49.35;100046.66;5536965;32;33536;-67
2022/08/26 07:39:50;;;;;;;12.88;3.25;;;;;;;30.18;48.69;100041.03;5550890;32;35510;-70
2022/08/26 07:42:53;;;;;;;12.55;2.97;;;;;;;30.94;46.76;100033.84;5537144;32;33376;-71
2022/08/26 07:45:56;;;;;;;10.82;3.20;;;;;;;32.16;44.96;100031.47;5550563;32;35057;-70
2022/08/26 07:48:59;;;;;;;19.45;3.10;;;;;;;31.13;43.92;100041.13;5536367;32;33062;-70
2022/08/26 07:52:03;;;;;;;11.80;2.67;;;;;;;30.91;45.37;100025.44;5550671;32;35053;-70
2022/08/26 07:55:07;;;;;;;16.40;3.28;;;;;;;32.13;43.21;100034.06;5537301;32;34183;-70
2022/08/26 07:58:10;;;;;;;10.68;3.00;;;;;;;32.16;42.83;100036.97;5536873;32;33603;-69
2022/08/26 08:01:12;;;;;;;30.85;5.32;;;;;;;33.04;40.34;100040.31;5550908;32;34205;-71
2022/08/26 08:04:17;;;;;;;423.48;41.42;;;;;;;32.07;41.22;100038.84;5536956;32;35007;-71
2022/08/26 08:07:27;;;;;;;12.32;3.28;;;;;;;32.46;40.19;100038.00;5535963;32;34041;-69
2022/08/26 08:10:47;;;;;;;24.58;4.43;;;;;;;32.92;39.37;100037.37;5550812;32;34235;-69
2022/08/26 08:13:51;;;;;;;766.60;80.35;;;;;;;33.87;36.78;100038.03;5536650;32;32583;-71
2022/08/26 08:16:58;;;;;;;13.75;2.72;;;;;;;34.84;35.00;100030.47;5536776;32;33016;-70
2022/08/26 08:20:02;;;;;;;9.18;2.92;;;;;;;33.83;35.91;100023.31;5549703;32;34220;-69
2022/08/26 08:23:05;;;;;;;10.20;2.80;;;;;;;32.66;37.58;100018.19;5536877;32;33096;-71
2022/08/26 08:26:09;;;;;;;10.55;2.92;;;;;;;32.99;36.02;100014.91;5550400;32;34272;-71
2022/08/26 08:29:12;;;;;;;11.82;2.87;;;;;;;33.85;35.50;100023.78;5550525;32;34554;-70
2022/08/26 08:32:14;;;;;;;8.85;2.75;;;;;;;33.19;36.94;100028.81;5536858;32;32971;-71
2022/08/26 08:35:22;;;;;;;23.17;2.87;;;;;;;34.23;35.86;100022.97;5550626;32;35519;-71
2022/08/26 08:38:27;;;;;;;8.93;2.87;;;;;;;36.25;31.38;100019.94;5550410;32;34541;-70
2022/08/26 08:41:51;;;;;;;10.32;2.75;;;;;;;35.46;32.54;100004.69;5537128;32;32793;-71
2022/08/26 08:44:57;;;;;;;11.27;2.60;;;;;;;36.90;29.51;100010.44;5536920;32;32849;-71
2022/08/26 08:48:11;;;;;;;10.38;2.70;;;;;;;36.65;30.59;100002.59;5550414;32;35432;-71
2022/08/26 08:51:41;;;;;;;14.27;2.87;;;;;;;36.27;30.48;99998.28;5550556;32;34387;-71
2022/08/26 08:54:45;;;;;;;13.90;3.22;;;;;;;36.98;28.90;100000.37;5550491;32;34299;-70
2022/08/26 08:58:08;;;;;;;10.43;2.72;;;;;;;36.47;27.92;100002.03;5536643;32;32799;-70
2022/08/26 09:01:26;;;;;;;16.95;3.10;;;;;;;38.22;26.93;100009.09;5550195;32;34870;-71
2022/08/26 09:04:48;;;;;;;;;;;;;;;37.04;27.04;99998.94;5537468;32;32541;-70
2022/08/26 09:08:00;;;;;;;8.93;2.62;;;;;;;36.75;27.67;99994.59;5535809;32;34790;-70
2022/08/26 09:11:03;;;;;;;13.02;3.22;;;;;;;37.61;27.14;99993.00;5550005;32;35214;-71
2022/08/26 09:14:07;;;;;;;11.25;2.55;;;;;;;39.82;24.42;99985.31;5549866;32;34932;-69
2022/08/26 09:17:20;;;;;;;11.82;2.60;;;;;;;38.35;25.38;99993.94;5550000;32;34444;-70
2022/08/26 09:20:42;;;;;;;8.32;2.53;;;;;;;39.93;23.86;99994.63;5536528;32;32556;-70
2022/08/26 09:23:47;;;;;;;14.82;3.10;;;;;;;37.54;25.63;99978.19;5536781;32;34301;-70
2022/08/26 09:26:55;;;;;;;10.93;2.70;;;;;;;37.51;26.17;99976.91;5550035;32;34324;-70
2022/08/26 09:29:58;;;;;;;9.13;3.00;;;;;;;36.27;28.64;99970.66;5550130;32;34994;-69
2022/08/26 09:33:09;;;;;;;13.38;2.95;;;;;;;34.53;30.99;99982.38;5536302;32;33094;-70
2022/08/26 09:36:21;;;;;;;9.35;3.00;;;;;;;34.03;31.97;99975.75;5536325;32;32986;-71
2022/08/26 09:39:31;;;;;;;11.98;3.20;;;;;;;36.45;28.41;99972.00;5550196;32;34928;-71
2022/08/26 09:42:34;;;;;;;13.40;3.33;;;;;;;37.98;26.04;99970.53;5550189;32;34463;-70
2022/08/26 09:45:39;;;;;;;9.18;2.50;;;;;;;37.32;26.19;99966.56;5536505;32;33550;-71
2022/08/26 09:48:52;;;;;;;17.52;3.15;;;;;;;37.31;26.83;99959.41;5536386;32;33336;-71
2022/08/26 09:52:10;;;;;;;13.32;3.67;;;;;;;39.17;23.99;99962.37;5550213;32;34598;-71
2022/08/26 09:55:22;;;;;;;15.75;2.95;;;;;;;41.78;21.52;99964.94;5550008;32;34846;-69
2022/08/26 09:58:37;;;;;;;13.45;2.87;;;;;;;40.56;21.98;99966.91;5549972;32;34268;-68
2022/08/26 10:01:43;;;;;;;7.95;2.70;;;;;;;35.20;28.94;99954.53;5549972;32;34259;-69
2022/08/26 10:04:53;;;;;;;21.50;3.10;;;;;;;33.70;30.97;99949.22;5549841;32;34216;-70
2022/08/26 10:07:56;;;;;;;13.65;3.30;;;;;;;33.27;33.23;99944.69;5549843;32;34201;-70
2022/08/26 10:11:10;;;;;;;15.10;3.08;;;;;;;32.13;35.85;99941.56;5550016;32;35520;-70
2022/08/26 10:14:13;;;;;;;11.20;2.80;;;;;;;31.80;36.39;99945.84;5536195;32;33099;-70
2022/08/26 10:17:32;;;;;;;11.70;3.28;;;;;;;31.20;37.68;99945.56;5550390;32;35426;-69
2022/08/26 10:20:48;;;;;;;14.50;3.35;;;;;;;30.92;38.37;99944.88;5535846;32;32904;-70
2022/08/26 10:23:56;;;;;;;12.25;3.03;;;;;;;31.23;36.91;99936.69;5535784;32;34922;-70
2022/08/26 10:26:58;;;;;;;11.07;3.37;;;;;;;31.39;38.07;99927.75;5523382;32;32678;-70
2022/08/26 10:30:09;;;;;;;11.50;3.40;;;;;;;31.54;36.83;99934.75;5549805;32;34593;-69
2022/08/26 10:33:14;;;;;;;20.62;3.12;;;;;;;31.34;36.88;99925.16;5536671;32;34589;-69
2022/08/26 10:40:06;;;;;;;11.40;3.72;;;;;;;31.66;36.85;99915.75;5550261;32;34341;-69
2022/08/26 10:43:31;;;;;;;9.85;3.20;;;;;;;32.48;35.85;99923.16;5549256;32;35415;-70
2022/08/26 10:46:39;;;;;;;16.62;3.00;;;;;;;35.99;29.93;99912.59;5536004;32;34487;-69
2022/08/26 10:49:46;;;;;;;14.77;2.55;;;;;;;37.24;26.61;99912.19;5535406;32;33000;-70
2022/08/26 10:52:58;;;;;;;13.85;3.60;;;;;;;39.47;25.14;99913.31;5535364;32;34251;-70
2022/08/26 10:56:08;;;;;;;19.15;2.80;;;;;;;41.80;21.58;99915.22;5549313;32;34212;-70
2022/08/26 10:59:26;;;;;;;14.02;2.95;;;;;;;42.88;20.61;99916.13;5535282;32;33100;-69
2022/08/26 11:02:46;;;;;;;12.95;2.70;;;;;;;42.28;19.81;99915.13;5548974;32;34966;-70
2022/08/26 11:06:15;;;;;;;12.10;2.78;;;;;;;41.89;20.28;99910.13;5535021;32;33750;-70
2022/08/26 11:09:51;;;;;;;18.10;3.35;;;;;;;44.42;18.21;99909.94;5549010;32;34243;-70
2022/08/26 11:13:03;;;;;;;13.02;2.90;;;;;;;42.30;19.34;99898.81;5506843;32;34962;-69
2022/08/26 11:16:07;;;;;;;13.18;3.80;;;;;;;42.28;20.43;99890.03;5535041;32;32910;-70
2022/08/26 11:19:37;;;;;;;14.40;2.70;;;;;;;43.50;19.13;99895.44;5548960;32;33285;-68
2022/08/26 11:23:11;;;;;;;22.40;3.28;;;;;;;40.95;20.38;99888.66;5548970;32;34525;-68
2022/08/26 11:26:15;;;;;;;11.88;3.17;;;;;;;39.88;22.46;99895.75;5548494;32;34540;-70
2022/08/26 11:30:07;;;;;;;14.35;2.90;;;;;;;42.00;20.56;99890.69;5534479;32;33237;-69
2022/08/26 11:34:07;;;;;;;14.38;2.87;;;;;;;45.68;16.99;99884.22;5534987;32;34303;-70
2022/08/26 11:37:16;;;;;;;11.55;2.53;;;;;;;46.35;16.08;99879.81;5457519;32;33378;-70
2022/08/26 11:40:24;;;;;;;41.03;3.20;;;;;;;44.92;17.40;99865.69;5470579;32;35472;-70
2022/08/26 11:43:27;;;;;;;13.85;3.28;;;;;;;46.21;16.84;99868.81;5457838;32;34188;-70
2022/08/26 11:46:36;;;;;;;14.43;2.87;;;;;;;44.48;17.70;99862.75;5457863;32;34300;-71
2022/08/26 11:49:39;;;;;;;19.05;3.45;;;;;;;44.77;17.80;99866.19;5457474;32;33928;-71
2022/08/26 11:52:55;;;;;;;15.40;2.78;;;;;;;43.45;18.83;99854.69;5470054;32;34255;-69
2022/08/26 11:56:03;;;;;;;16.40;2.60;;;;;;;45.06;17.15;99859.19;5471945;32;34811;-70
2022/08/26 11:59:11;;;;;;;9.37;2.63;;;;;;;44.73;17.09;99855.03;5472596;32;34216;-70
2022/08/26 12:02:32;;;;;;;13.95;2.35;;;;;;;46.34;15.70;99850.19;5472784;32;34551;-71
2022/08/26 12:05:46;;;;;;;18.27;2.90;;;;;;;48.75;14.02;99848.50;5459747;32;33375;-71
2022/08/26 12:08:50;;;;;;;6.72;2.50;;;;;;;48.00;14.44;99840.91;5460052;32;33446;-71
2022/08/26 12:12:31;;;;;;;17.35;2.97;;;;;;;48.99;13.21;99844.28;5521310;32;34525;-69
2022/08/26 12:15:38;;;;;;;20.20;3.15;;;;;;;44.29;17.39;99824.94;5472310;32;33859;-71
2022/08/26 12:18:48;;;;;;;36.47;3.67;;;;;;;43.69;18.10;99825.94;5459766;32;34572;-71
2022/08/26 12:22:00;;;;;;;10.82;2.65;;;;;;;45.22;17.44;99823.00;5472600;32;34904;-71
2022/08/26 12:25:08;;;;;;;14.00;2.97;;;;;;;46.69;15.99;99818.00;5472618;32;35442;-71
2022/08/26 12:28:13;;;;;;;22.55;3.28;;;;;;;47.63;14.25;99815.97;5472305;32;34300;-72
2022/08/26 12:31:26;;;;;;;12.47;2.93;;;;;;;49.88;12.91;99811.63;5460414;32;34980;-70
2022/08/26 12:34:29;;;;;;;11.07;2.62;;;;;;;49.98;12.11;99813.34;5472393;32;34786;-71
2022/08/26 12:37:36;;;;;;;14.75;2.78;;;;;;;46.55;14.63;99815.44;5453079;32;32754;-71
2022/08/26 12:40:44;;;;;;;9.77;2.62;;;;;;;48.92;13.00;99805.00;5453336;32;34078;-71
2022/08/26 12:44:29;;;;;;;11.25;2.70;;;;;;;44.51;16.03;99801.19;5441302;32;34932;-71
2022/08/26 12:47:38;;;;;;;10.70;2.58;;;;;;;46.36;15.28;99797.25;5453460;32;32723;-70
2022/08/26 12:50:47;;;;;;;12.82;2.50;;;;;;;46.65;14.96;99792.81;5526778;32;34171;-68
2022/08/26 12:53:53;;;;;;;14.23;2.75;;;;;;;44.99;16.23;99784.41;5517635;32;33823;-69
2022/08/26 12:57:07;;;;;;;11.15;2.50;;;;;;;45.69;15.64;99778.50;5531075;32;34830;-70
2022/08/26 13:00:35;;;;;;;10.50;2.70;;;;;;;47.43;14.17;99780.19;5530584;32;34870;-70
2022/08/26 13:03:42;;;;;;;10.77;2.50;;;;;;;47.09;14.22;99774.81;5505136;32;33846;-70
2022/08/26 13:06:51;;;;;;;25.00;3.45;;;;;;;47.70;14.00;99771.63;5517379;32;34577;-70
2022/08/26 13:10:05;;;;;;;14.87;2.65;;;;;;;48.50;13.15;99772.28;5531173;32;34589;-70
2022/08/26 13:13:11;;;;;;;10.35;2.65;;;;;;;47.43;14.41;99770.97;5518088;32;34484;-70
2022/08/26 13:16:15;;;;;;;11.07;2.80;;;;;;;49.23;12.83;99765.97;5517401;32;34233;-71
2022/08/26 13:19:21;;;;;;;13.27;2.80;;;;;;;51.00;12.07;99777.41;5517400;32;33501;-70
2022/08/26 13:22:28;;;;;;;14.15;3.10;;;;;;;49.62;12.34;99756.41;5531492;32;35393;-70
2022/08/26 13:25:33;;;;;;;12.18;2.53;;;;;;;48.30;12.83;99749.81;5517492;32;32715;-70
2022/08/26 13:28:41;;;;;;;9.40;2.75;;;;;;;47.10;14.23;99744.72;5531198;32;34872;-71
2022/08/26 13:31:45;;;;;;;10.30;2.70;;;;;;;48.54;12.81;99745.62;5531101;32;34314;-71
2022/08/26 13:34:50;;;;;;;12.35;2.83;;;;;;;47.73;13.60;99739.84;5517139;32;35039;-70
2022/08/26 13:37:56;;;;;;;19.48;2.87;;;;;;;46.04;14.88;99735.22;5526919;32;33207;-70
2022/08/26 13:41:01;;;;;;;12.80;2.55;;;;;;;46.61;14.69;99733.13;5550399;32;34215;-70
2022/08/26 13:44:07;;;;;;;8.77;2.65;;;;;;;45.71;15.05;99729.22;5550207;32;34873;-69
2022/08/26 13:47:25;;;;;;;11.50;2.45;;;;;;;49.58;13.13;99735.97;5537143;32;34962;-70
2022/08/26 13:50:29;;;;;;;7.55;2.37;;;;;;;51.05;11.85;99728.78;5550043;32;34233;-70
2022/08/26 13:53:32;;;;;;;16.08;2.17;;;;;;;48.92;13.22;99728.94;5536195;32;34063;-70
2022/08/26 13:56:37;;;;;;;14.40;2.53;;;;;;;49.64;12.51;99728.53;5523420;32;33015;-70
2022/08/26 13:59:42;;;;;;;16.30;2.60;;;;;;;50.66;11.86;99732.16;5523912;32;34463;-70
2022/08/26 14:02:47;;;;;;;11.50;2.45;;;;;;;48.13;13.13;99714.44;5523306;32;33022;-70
2022/08/26 14:05:52;;;;;;;16.73;3.12;;;;;;;45.81;14.89;99710.69;5535829;32;32779;-70
2022/08/26 14:08:56;;;;;;;7.05;2.25;;;;;;;47.45;13.71;99715.12;5549445;32;32934;-70
2022/08/26 14:12:02;;;;;;;14.80;2.83;;;;;;;47.87;13.63;99714.22;5535533;32;33625;-70
2022/08/26 14:15:07;;;;;;;12.85;2.55;;;;;;;43.08;17.44;99698.84;5548916;32;34288;-70
2022/08/26 14:18:14;;;;;;;9.90;2.70;;;;;;;40.53;19.58;99703.50;5548438;32;35100;-70
2022/08/26 14:21:19;;;;;;;9.55;2.37;;;;;;;40.91;20.16;99707.00;5535372;32;33533;-70
2022/08/26 14:24:26;;;;;;;10.77;2.40;;;;;;;40.24;20.18;99719.13;5534997;32;34822;-70
2022/08/26 14:27:28;;;;;;;13.52;2.70;;;;;;;38.29;22.25;99696.16;5522555;32;34023;-68
2022/08/26 14:30:32;;;;;;;12.10;2.70;;;;;;;36.25;23.86;99713.34;5549166;32;35608;-69
2022/08/26 14:33:37;;;;;;;14.48;2.60;;;;;;;37.96;22.61;99718.03;5535780;32;34308;-69
2022/08/26 14:36:50;;;;;;;14.57;2.40;;;;;;;39.17;21.14;99716.19;5535945;32;32767;-69